Time;durP1;ratioP1;P1;durP2;ratioP2;P2;SDS_P1;SDS_P2;PMS_P1;PMS_P2;Temp;Humidity;BMP_temperature;BMP_pressure;BME280_temperature;BME280_humidity;BME280_pressure;Samples;Min_cycle;Max_cycle;Signal;HPM_P1;HPM_P2
2023/04/29 00:00:12;;;;;;;22.17;19.77;;;;;20.20;100165.00;;;;2075563;28;20210;-72
2023/04/29 00:01:12;;;;;;;22.45;20.05;;;;;20.20;100159.00;;;;2064361;28;20226;-72
2023/04/29 00:02:13;;;;;;;24.00;20.00;;;;;20.20;100124.00;;;;2067408;28;20210;-72
2023/04/29 00:03:13;;;;;;;22.90;20.37;;;;;20.20;100152.00;;;;2069603;28;20214;-72
2023/04/29 00:04:14;;;;;;;23.53;20.73;;;;;20.20;100160.00;;;;2052182;28;20216;-73
2023/04/29 00:05:14;;;;;;;22.93;20.53;;;;;20.20;100167.00;;;;2060309;28;20238;-73
2023/04/29 00:06:15;;;;;;;23.97;21.20;;;;;20.20;100144.00;;;;2073483;28;20206;-72
2023/04/29 00:07:15;;;;;;;22.73;20.20;;;;;20.20;100166.00;;;;2071110;28;20210;-72
2023/04/29 00:08:16;;;;;;;23.00;20.50;;;;;20.20;100166.00;;;;2069943;28;20454;-72
2023/04/29 00:09:16;;;;;;;23.97;21.40;;;;;20.20;100168.00;;;;2069882;28;20210;-72
2023/04/29 00:10:17;;;;;;;21.17;19.10;;;;;20.20;100168.00;;;;2069791;28;20748;-72
2023/04/29 00:11:17;;;;;;;21.97;19.67;;;;;20.20;100130.00;;;;2065375;28;20237;-72
2023/04/29 00:12:17;;;;;;;23.23;20.73;;;;;20.20;100158.00;;;;2064861;28;20210;-72
2023/04/29 00:13:18;;;;;;;23.90;21.23;;;;;20.20;100163.00;;;;2074656;28;20505;-72
2023/04/29 00:14:18;;;;;;;22.70;20.23;;;;;20.10;100169.00;;;;2069721;28;20246;-72
2023/04/29 00:15:18;;;;;;;22.73;20.33;;;;;20.20;100169.00;;;;2066842;28;20207;-72
2023/04/29 00:16:19;;;;;;;23.20;20.70;;;;;20.20;100175.00;;;;2064647;28;20215;-72
2023/04/29 00:17:19;;;;;;;21.93;19.60;;;;;20.20;100170.00;;;;2069971;28;20225;-72
2023/04/29 00:18:20;;;;;;;23.63;21.13;;;;;20.20;100167.00;;;;2071734;28;20214;-72
2023/04/29 00:19:20;;;;;;;21.40;19.20;;;;;20.20;100168.00;;;;2070194;28;20229;-72
2023/04/29 00:20:20;;;;;;;22.83;20.17;;;;;20.20;100172.00;;;;2070135;28;20219;-72
2023/04/29 00:21:21;;;;;;;22.80;20.40;;;;;20.20;100162.00;;;;2069321;28;20222;-72
2023/04/29 00:22:21;;;;;;;21.30;18.87;;;;;20.20;100181.00;;;;2065448;28;20626;-72
2023/04/29 00:23:22;;;;;;;20.00;18.00;;;;;20.20;100179.00;;;;2061929;28;20238;-72
2023/04/29 00:24:22;;;;;;;24.00;20.03;;;;;20.20;100165.00;;;;2073258;28;20221;-72
2023/04/29 00:25:22;;;;;;;21.13;18.90;;;;;20.20;100182.00;;;;2068768;28;20282;-72
2023/04/29 00:26:23;;;;;;;21.70;19.40;;;;;20.20;100186.00;;;;2068548;28;20234;-72
2023/04/29 00:27:23;;;;;;;21.53;19.33;;;;;20.20;100157.00;;;;2074003;28;20215;-72
2023/04/29 00:28:24;;;;;;;20.07;17.97;;;;;20.20;100184.00;;;;2074445;28;20230;-72
2023/04/29 00:29:24;;;;;;;22.07;19.73;;;;;20.20;100161.00;;;;2064829;28;20247;-72
2023/04/29 00:30:24;;;;;;;22.50;20.10;;;;;20.20;100186.00;;;;2060419;28;20211;-72
2023/04/29 00:31:25;;;;;;;21.73;19.30;;;;;20.20;100160.00;;;;2073592;28;20230;-72
2023/04/29 00:32:25;;;;;;;22.00;19.67;;;;;20.20;100181.00;;;;2069342;28;20203;-72
2023/04/29 00:33:26;;;;;;;21.30;19.07;;;;;20.20;100179.00;;;;2063830;28;20246;-72
2023/04/29 00:34:26;;;;;;;20.03;17.97;;;;;20.20;100189.00;;;;2064685;28;20210;-72
2023/04/29 00:35:26;;;;;;;21.50;19.30;;;;;20.20;100191.00;;;;2069768;28;20210;-72
2023/04/29 00:36:27;;;;;;;21.27;19.17;;;;;20.20;100177.00;;;;2071678;28;20219;-72
2023/04/29 00:37:27;;;;;;;23.00;20.50;;;;;20.20;100185.00;;;;2068818;28;20195;-72
2023/04/29 00:38:28;;;;;;;20.83;18.63;;;;;20.20;100198.00;;;;2069916;28;20205;-72
2023/04/29 00:39:28;;;;;;;20.67;18.53;;;;;20.10;100188.00;;;;2072569;28;20225;-73
2023/04/29 00:40:28;;;;;;;20.13;18.13;;;;;20.10;100190.00;;;;2074341;28;20214;-73
2023/04/29 00:41:29;;;;;;;20.30;18.17;;;;;20.20;100198.00;;;;2070031;28;20222;-73
2023/04/29 00:42:31;;;;;;;20.63;18.42;;;;;20.20;100178.00;;;;2065011;28;20207;-73
2023/04/29 00:43:31;;;;;;;21.30;18.30;;;;;20.20;100197.00;;;;2064073;28;20210;-73
2023/04/29 00:44:31;;;;;;;19.93;17.90;;;;;20.20;100195.00;;;;2054429;28;20211;-73
2023/04/29 00:45:32;;;;;;;19.70;17.20;;;;;20.10;100200.00;;;;2062679;28;20270;-73
2023/04/29 00:46:33;;;;;;;21.08;18.33;;;;;20.10;100200.00;;;;2069793;28;20203;-73
2023/04/29 00:47:33;;;;;;;19.10;16.43;;;;;20.20;100182.00;;;;2063095;28;20226;-73
2023/04/29 00:48:34;;;;;;;22.13;18.80;;;;;20.10;100200.00;;;;2062311;28;20477;-73
2023/04/29 00:49:34;;;;;;;18.67;16.67;;;;;20.20;100203.00;;;;2075874;28;20237;-73
2023/04/29 00:50:35;;;;;;;19.80;17.80;;;;;20.20;100203.00;;;;2065364;28;20223;-73
2023/04/29 00:51:35;;;;;;;18.63;16.70;;;;;20.20;100204.00;;;;2062237;28;20261;-73
2023/04/29 00:52:36;;;;;;;20.47;18.37;;;;;20.20;100206.00;;;;2071170;28;20450;-73
2023/04/29 00:53:37;;;;;;;18.60;16.67;;;;;20.10;100168.00;;;;2064059;28;20224;-73
2023/04/29 00:54:37;;;;;;;19.57;17.07;;;;;20.10;100163.00;;;;2068379;28;20281;-73
2023/04/29 00:55:38;;;;;;;19.47;17.37;;;;;20.10;100198.00;;;;2074307;28;20214;-73
2023/04/29 00:56:40;;;;;;;21.60;17.93;;;;;20.20;100213.00;;;;2060179;28;20211;-73
2023/04/29 00:57:41;;;;;;;20.45;17.88;;;;;20.10;100216.00;;;;2064261;28;20231;-73
2023/04/29 00:58:48;;;;;;;19.50;17.40;;;;;20.10;100218.00;;;;2071779;28;20230;-73
2023/04/29 00:59:48;;;;;;;19.02;16.33;;;;;20.10;100195.00;;;;2069671;28;20211;-73
2023/04/29 01:00:49;;;;;;;20.00;17.20;;;;;20.10;100189.00;;;;2054422;28;20246;-73
2023/04/29 01:01:49;;;;;;;19.23;16.60;;;;;20.10;100225.00;;;;2067237;28;20219;-73
2023/04/29 01:02:50;;;;;;;19.77;17.40;;;;;20.10;100222.00;;;;2078536;28;20206;-73
2023/04/29 01:03:50;;;;;;;21.13;18.93;;;;;20.10;100215.00;;;;2056141;28;20239;-73
2023/04/29 01:04:50;;;;;;;20.13;16.83;;;;;20.10;100220.00;;;;2056138;28;20216;-73
2023/04/29 01:05:57;;;;;;;21.40;18.17;;;;;20.10;100226.00;;;;2069511;28;20249;-73
2023/04/29 01:07:17;;;;;;;20.88;18.55;;;;;20.10;100208.00;;;;2062144;28;20220;-73
2023/04/29 01:08:32;;;;;;;19.15;17.05;;;;;20.10;100221.00;;;;2064989;28;20620;-73
2023/04/29 01:09:55;;;;;;;21.27;18.83;;;;;20.10;100228.00;;;;2057769;28;20232;-73
2023/04/29 01:11:14;;;;;;;21.00;18.25;;;;;20.10;100226.00;;;;2057645;28;20731;-73
2023/04/29 01:12:27;;;;;;;21.65;18.48;;;;;20.10;100233.00;;;;2073859;28;20221;-73
2023/04/29 01:13:33;;;;;;;20.85;18.20;;;;;20.10;100236.00;;;;2065906;28;20251;-71
2023/04/29 01:14:34;;;;;;;21.08;17.48;;;;;20.10;100227.00;;;;2068859;28;20254;-71
2023/04/29 01:15:38;;;;;;;18.27;16.27;;;;;20.10;100232.00;;;;2070538;28;20234;-71
2023/04/29 01:16:51;;;;;;;20.55;17.70;;;;;20.10;100215.00;;;;2062491;28;20242;-70
2023/04/29 01:17:59;;;;;;;19.10;16.70;;;;;20.10;100213.00;;;;2060986;28;20219;-71
2023/04/29 01:19:01;;;;;;;18.52;15.95;;;;;20.10;100210.00;;;;2047962;28;20225;-71
2023/04/29 01:20:03;;;;;;;19.83;17.65;;;;;20.10;100233.00;;;;2051020;28;20223;-70
2023/04/29 01:21:03;;;;;;;22.80;18.92;;;;;20.10;100236.00;;;;2057594;28;20221;-71
2023/04/29 01:22:04;;;;;;;19.47;17.47;;;;;20.10;100238.00;;;;2068610;28;20215;-71
2023/04/29 01:23:04;;;;;;;23.83;19.23;;;;;20.10;100242.00;;;;2070705;28;20234;-70
2023/04/29 01:24:05;;;;;;;22.20;19.03;;;;;20.10;100235.00;;;;2072509;28;20219;-71
2023/04/29 01:25:05;;;;;;;22.37;19.40;;;;;20.10;100234.00;;;;2073255;28;20219;-71
2023/04/29 01:26:07;;;;;;;19.50;17.40;;;;;20.10;100225.00;;;;2064301;28;20226;-70
2023/04/29 01:27:38;;;;;;;22.42;18.98;;;;;20.10;100235.00;;;;2061964;28;20219;-71
2023/04/29 01:28:55;;;;;;;21.00;17.67;;;;;20.10;100242.00;;;;2062061;28;20686;-70
2023/04/29 01:30:28;;;;;;;21.65;18.13;;;;;20.10;100235.00;;;;2055753;28;20216;-70
2023/04/29 01:31:45;;;;;;;22.58;19.05;;;;;20.10;100248.00;;;;2032164;29;20218;-71
2023/04/29 01:32:52;;;;;;;22.50;19.25;;;;;20.10;100213.00;;;;2062178;28;20211;-70
2023/04/29 01:34:01;;;;;;;21.23;18.65;;;;;20.10;100242.00;;;;2063839;28;20242;-70
2023/04/29 01:35:29;;;;;;;21.42;19.17;;;;;20.10;100239.00;;;;2059028;28;20722;-70
2023/04/29 01:36:40;;;;;;;21.42;18.50;;;;;20.10;100255.00;;;;2057469;28;20207;-70
2023/04/29 01:38:08;;;;;;;24.90;19.83;;;;;20.10;100248.00;;;;2055450;28;20211;-70
2023/04/29 01:39:14;;;;;;;24.20;19.60;;;;;20.10;100236.00;;;;2057474;28;20220;-70
2023/04/29 01:40:18;;;;;;;23.17;18.58;;;;;20.10;100257.00;;;;2061321;28;20302;-71
2023/04/29 01:41:25;;;;;;;21.33;18.25;;;;;20.10;100243.00;;;;2059101;28;20606;-71
2023/04/29 01:42:33;;;;;;;20.27;17.73;;;;;20.00;100194.00;;;;2052929;28;20802;-70
2023/04/29 01:43:33;;;;;;;23.13;19.30;;;;;20.10;100254.00;;;;2063364;28;20220;-70
2023/04/29 01:44:34;;;;;;;20.90;18.00;;;;;20.10;100254.00;;;;2055337;28;20319;-70
2023/04/29 01:45:34;;;;;;;24.10;18.93;;;;;20.10;100246.00;;;;2063097;28;20230;-71
2023/04/29 01:46:35;;;;;;;23.70;20.40;;;;;20.10;100214.00;;;;2064663;28;20221;-70
2023/04/29 01:47:35;;;;;;;24.10;19.40;;;;;20.10;100251.00;;;;2064544;28;20223;-71
2023/04/29 01:48:36;;;;;;;24.43;19.57;;;;;20.00;100192.00;;;;2059199;28;20212;-71
2023/04/29 01:49:37;;;;;;;22.30;18.13;;;;;20.00;100249.00;;;;2060501;28;20220;-70
2023/04/29 01:50:37;;;;;;;25.40;20.07;;;;;20.00;100251.00;;;;2063890;28;20299;-70
2023/04/29 01:51:37;;;;;;;24.13;18.90;;;;;20.10;100245.00;;;;2065282;28;20450;-70
2023/04/29 01:52:38;;;;;;;24.17;19.70;;;;;20.00;100250.00;;;;2071996;28;20243;-70
2023/04/29 01:53:42;;;;;;;27.10;20.83;;;;;20.00;100251.00;;;;2070018;28;20223;-70
2023/04/29 01:54:43;;;;;;;24.75;19.92;;;;;20.00;100260.00;;;;2074864;28;20230;-70
2023/04/29 01:55:43;;;;;;;25.17;20.10;;;;;20.10;100260.00;;;;2063622;28;20222;-71
2023/04/29 01:56:43;;;;;;;25.43;20.60;;;;;20.00;100258.00;;;;2054649;28;20456;-70
2023/04/29 01:57:44;;;;;;;25.30;19.53;;;;;20.10;100264.00;;;;2054148;28;20235;-70
2023/04/29 01:58:44;;;;;;;23.70;19.63;;;;;20.10;100256.00;;;;2065093;28;20229;-71
2023/04/29 01:59:44;;;;;;;26.33;21.00;;;;;20.00;100255.00;;;;2068777;28;20215;-70
2023/04/29 02:00:45;;;;;;;24.73;19.97;;;;;20.00;100262.00;;;;2060155;28;20215;-71
2023/04/29 02:01:45;;;;;;;26.10;21.03;;;;;20.00;100213.00;;;;2057001;28;20227;-71
2023/04/29 02:02:45;;;;;;;25.60;21.13;;;;;20.10;100255.00;;;;2070749;28;20221;-71
2023/04/29 02:03:46;;;;;;;25.77;20.00;;;;;20.10;100265.00;;;;2065684;28;20208;-71
2023/04/29 02:04:46;;;;;;;24.70;19.90;;;;;20.00;100261.00;;;;2062110;28;20210;-71
2023/04/29 02:05:49;;;;;;;27.47;21.50;;;;;20.00;100263.00;;;;2070331;28;20227;-71
2023/04/29 02:06:51;;;;;;;25.10;19.55;;;;;20.00;100270.00;;;;2070296;28;20226;-71
2023/04/29 02:07:51;;;;;;;25.52;21.25;;;;;20.00;100267.00;;;;2070652;28;20230;-70
2023/04/29 02:08:52;;;;;;;24.90;20.77;;;;;20.00;100274.00;;;;2062106;28;20211;-71
2023/04/29 02:09:52;;;;;;;30.50;21.47;;;;;20.00;100271.00;;;;2063659;28;20234;-70
2023/04/29 02:10:53;;;;;;;25.37;20.30;;;;;20.00;100272.00;;;;2071274;28;20214;-71
2023/04/29 02:11:54;;;;;;;24.00;19.45;;;;;20.00;100269.00;;;;2070061;28;20302;-70
2023/04/29 02:12:54;;;;;;;26.73;20.37;;;;;20.00;100276.00;;;;2070775;28;20269;-70
2023/04/29 02:13:55;;;;;;;26.27;20.80;;;;;20.00;100280.00;;;;2074223;28;20257;-70
2023/04/29 02:14:56;;;;;;;25.77;19.95;;;;;20.00;100271.00;;;;2066284;28;20223;-71
2023/04/29 02:15:56;;;;;;;27.43;22.10;;;;;20.00;100282.00;;;;2062097;28;20626;-70
2023/04/29 02:16:56;;;;;;;27.33;21.67;;;;;20.00;100286.00;;;;2069260;28;20253;-70
2023/04/29 02:17:57;;;;;;;25.97;21.40;;;;;20.00;100260.00;;;;2069930;28;20226;-70
2023/04/29 02:18:57;;;;;;;29.40;22.93;;;;;20.00;100247.00;;;;2052796;28;20568;-70
2023/04/29 02:19:57;;;;;;;28.10;21.63;;;;;20.00;100265.00;;;;2065038;28;20215;-71
2023/04/29 02:21:01;;;;;;;26.37;20.23;;;;;20.00;100294.00;;;;2074158;28;20230;-70
2023/04/29 02:22:01;;;;;;;27.73;21.42;;;;;20.00;100279.00;;;;2062643;28;20219;-70
2023/04/29 02:23:02;;;;;;;25.80;20.47;;;;;20.00;100288.00;;;;2067829;28;20225;-70
2023/04/29 02:24:02;;;;;;;30.17;22.13;;;;;20.00;100278.00;;;;2054859;28;20216;-70
2023/04/29 02:25:03;;;;;;;24.83;19.80;;;;;20.00;100284.00;;;;2063215;28;20318;-70
2023/04/29 02:26:06;;;;;;;26.10;20.33;;;;;20.00;100278.00;;;;2062189;28;20338;-70
2023/04/29 02:27:06;;;;;;;25.92;19.95;;;;;20.00;100288.00;;;;2070672;28;20214;-70
2023/04/29 02:28:07;;;;;;;28.90;21.33;;;;;20.00;100287.00;;;;2063488;28;20216;-70
2023/04/29 02:29:07;;;;;;;25.37;21.00;;;;;20.00;100274.00;;;;2078176;28;20269;-70
2023/04/29 02:30:08;;;;;;;29.53;21.33;;;;;20.00;100291.00;;;;2071383;28;20222;-70
2023/04/29 02:31:08;;;;;;;28.37;21.47;;;;;20.00;100298.00;;;;2075537;28;20222;-70
2023/04/29 02:32:08;;;;;;;27.97;20.87;;;;;20.00;100295.00;;;;2070877;28;20470;-70
2023/04/29 02:33:09;;;;;;;26.90;20.73;;;;;20.00;100292.00;;;;2061722;28;20231;-71
2023/04/29 02:34:09;;;;;;;28.57;20.23;;;;;20.00;100295.00;;;;2061878;28;20254;-71
2023/04/29 02:35:11;;;;;;;25.50;20.27;;;;;19.90;100295.00;;;;2063406;28;20227;-71
2023/04/29 02:36:12;;;;;;;28.30;20.60;;;;;20.00;100288.00;;;;2066958;28;20306;-71
2023/04/29 02:37:13;;;;;;;25.17;21.20;;;;;20.00;100304.00;;;;2076575;28;20221;-72
2023/04/29 02:38:13;;;;;;;26.80;21.30;;;;;20.00;100295.00;;;;2069916;28;20528;-72
2023/04/29 02:39:13;;;;;;;24.03;19.80;;;;;20.00;100301.00;;;;2070183;28;20224;-71
2023/04/29 02:40:14;;;;;;;28.93;20.20;;;;;20.00;100280.00;;;;2070264;28;20303;-71
2023/04/29 02:41:17;;;;;;;28.10;20.93;;;;;20.00;100301.00;;;;2061884;28;20688;-71
2023/04/29 02:42:19;;;;;;;25.02;19.95;;;;;20.00;100295.00;;;;2057569;28;20760;-71
2023/04/29 02:43:19;;;;;;;28.45;21.05;;;;;20.00;100298.00;;;;2064025;28;20234;-71
2023/04/29 02:44:19;;;;;;;25.67;19.30;;;;;20.00;100299.00;;;;2068100;28;20267;-71
2023/04/29 02:45:20;;;;;;;25.80;19.93;;;;;20.00;100305.00;;;;2069467;28;20295;-71
2023/04/29 02:46:20;;;;;;;24.77;19.87;;;;;20.00;100280.00;;;;2064505;28;20278;-71
2023/04/29 02:47:21;;;;;;;26.67;19.87;;;;;20.00;100310.00;;;;2065478;28;20202;-71
2023/04/29 02:48:21;;;;;;;25.87;18.27;;;;;20.00;100285.00;;;;2075278;28;20218;-71
2023/04/29 02:49:21;;;;;;;26.60;19.60;;;;;19.90;100300.00;;;;2062610;28;20262;-70
2023/04/29 02:50:22;;;;;;;25.17;19.50;;;;;20.00;100300.00;;;;2061963;28;20597;-70
2023/04/29 02:51:22;;;;;;;25.67;19.90;;;;;20.00;100314.00;;;;2069685;28;20233;-70
2023/04/29 02:52:22;;;;;;;26.07;20.47;;;;;20.00;100290.00;;;;2070235;28;20726;-72
2023/04/29 02:53:23;;;;;;;23.77;18.13;;;;;20.00;100311.00;;;;2073426;28;20207;-71
2023/04/29 02:54:23;;;;;;;26.63;20.77;;;;;20.00;100298.00;;;;2070314;28;20223;-71
2023/04/29 02:55:23;;;;;;;25.20;18.93;;;;;20.00;100281.00;;;;2066056;28;20239;-71
2023/04/29 02:56:24;;;;;;;27.43;20.13;;;;;20.00;100321.00;;;;2060615;28;20216;-71
2023/04/29 02:57:24;;;;;;;24.40;19.30;;;;;20.00;100313.00;;;;2069966;28;20213;-71
2023/04/29 02:58:24;;;;;;;26.03;19.03;;;;;20.00;100316.00;;;;2075931;28;20297;-71
2023/04/29 02:59:25;;;;;;;24.90;18.67;;;;;20.00;100313.00;;;;2073880;28;20242;-71
2023/04/29 03:00:25;;;;;;;25.53;20.20;;;;;20.00;100314.00;;;;2074282;28;20207;-72
2023/04/29 03:01:26;;;;;;;22.80;18.63;;;;;20.00;100325.00;;;;2070974;28;20210;-72
2023/04/29 03:02:26;;;;;;;23.30;17.83;;;;;20.00;100330.00;;;;2074559;28;21004;-72
2023/04/29 03:03:26;;;;;;;26.90;20.73;;;;;20.00;100325.00;;;;2071913;28;20208;-71
2023/04/29 03:04:27;;;;;;;25.57;19.17;;;;;19.90;100310.00;;;;2072733;28;20202;-71
2023/04/29 03:05:27;;;;;;;24.63;18.60;;;;;20.00;100326.00;;;;2074061;28;20213;-72
2023/04/29 03:06:28;;;;;;;25.07;19.27;;;;;20.00;100319.00;;;;2070030;28;20242;-71
2023/04/29 03:07:28;;;;;;;24.10;18.47;;;;;19.90;100310.00;;;;2055669;28;20235;-71
2023/04/29 03:08:29;;;;;;;21.47;17.43;;;;;20.00;100334.00;;;;2065294;28;20223;-71
2023/04/29 03:09:29;;;;;;;24.47;18.83;;;;;20.00;100317.00;;;;2070434;28;20489;-71
2023/04/29 03:10:30;;;;;;;21.07;17.00;;;;;19.90;100332.00;;;;2078049;28;20240;-71
2023/04/29 03:11:30;;;;;;;21.13;17.10;;;;;19.90;100326.00;;;;2076016;28;20199;-71
2023/04/29 03:12:30;;;;;;;21.93;16.43;;;;;19.90;100289.00;;;;2070811;28;20563;-71
2023/04/29 03:13:30;;;;;;;23.30;18.17;;;;;20.00;100325.00;;;;2072002;28;20218;-71
2023/04/29 03:14:31;;;;;;;23.70;17.70;;;;;20.00;100323.00;;;;2071679;28;20207;-72
2023/04/29 03:15:31;;;;;;;21.70;17.10;;;;;20.00;100334.00;;;;2074493;28;20221;-71
2023/04/29 03:16:32;;;;;;;24.17;18.10;;;;;19.90;100295.00;;;;2073542;28;20205;-71
2023/04/29 03:17:33;;;;;;;20.13;17.13;;;;;19.90;100323.00;;;;2066340;28;20195;-71
2023/04/29 03:18:33;;;;;;;22.23;17.58;;;;;19.90;100323.00;;;;2066479;28;20316;-71
2023/04/29 03:19:34;;;;;;;21.93;16.80;;;;;19.90;100330.00;;;;2062065;28;20324;-71
2023/04/29 03:20:34;;;;;;;20.60;16.87;;;;;19.90;100330.00;;;;2066717;28;20285;-71
2023/04/29 03:21:34;;;;;;;23.90;18.77;;;;;19.90;100304.00;;;;2068143;28;20211;-71
2023/04/29 03:22:35;;;;;;;20.80;17.10;;;;;19.90;100336.00;;;;2069395;28;20210;-71
2023/04/29 03:23:35;;;;;;;21.27;15.87;;;;;19.90;100319.00;;;;2069219;28;22883;-71
2023/04/29 03:24:36;;;;;;;20.90;15.73;;;;;19.90;100289.00;;;;2071187;28;20604;-71
2023/04/29 03:25:36;;;;;;;21.97;16.87;;;;;19.90;100343.00;;;;2073493;28;20265;-71
2023/04/29 03:26:37;;;;;;;19.83;15.50;;;;;19.90;100341.00;;;;2062164;28;20440;-71
2023/04/29 03:27:37;;;;;;;21.93;16.40;;;;;19.90;100338.00;;;;2064115;28;20207;-72
2023/04/29 03:28:38;;;;;;;19.23;15.80;;;;;19.90;100344.00;;;;2063789;28;20214;-71
2023/04/29 03:29:38;;;;;;;17.97;15.10;;;;;19.90;100344.00;;;;2069649;28;20215;-71
2023/04/29 03:30:38;;;;;;;18.83;15.47;;;;;19.90;100332.00;;;;2073112;28;20239;-71
2023/04/29 03:31:39;;;;;;;19.67;15.67;;;;;19.90;100345.00;;;;2075623;28;20233;-71
2023/04/29 03:32:40;;;;;;;19.83;15.90;;;;;19.90;100317.00;;;;2072747;28;20229;-71
2023/04/29 03:33:40;;;;;;;19.20;15.90;;;;;19.90;100353.00;;;;2075674;28;20213;-71
2023/04/29 03:34:40;;;;;;;20.10;15.63;;;;;19.90;100346.00;;;;2076336;28;20479;-71
2023/04/29 03:35:40;;;;;;;19.60;16.10;;;;;19.90;100325.00;;;;2072704;28;20215;-71
2023/04/29 03:36:41;;;;;;;15.97;13.40;;;;;19.90;100348.00;;;;2070716;28;20242;-71
2023/04/29 03:37:43;;;;;;;19.80;16.03;;;;;19.90;100346.00;;;;2069580;28;20219;-71
2023/04/29 03:38:43;;;;;;;17.60;14.20;;;;;19.90;100344.00;;;;2069960;28;20218;-71
2023/04/29 03:39:43;;;;;;;17.60;14.63;;;;;19.90;100324.00;;;;2073658;28;20210;-71
2023/04/29 03:40:44;;;;;;;17.23;13.80;;;;;19.90;100355.00;;;;2075481;28;20221;-71
2023/04/29 03:41:46;;;;;;;18.33;14.83;;;;;19.90;100353.00;;;;2077753;28;20241;-71
2023/04/29 03:42:46;;;;;;;18.20;14.38;;;;;19.90;100352.00;;;;2062087;28;20208;-71
2023/04/29 03:43:46;;;;;;;17.47;14.50;;;;;19.90;100351.00;;;;2067258;28;20230;-71
2023/04/29 03:44:47;;;;;;;18.63;14.43;;;;;19.90;100356.00;;;;2073332;28;20202;-71
2023/04/29 03:45:47;;;;;;;16.80;14.00;;;;;19.90;100353.00;;;;2070075;28;20246;-71
2023/04/29 03:46:47;;;;;;;18.63;14.60;;;;;19.90;100349.00;;;;2067220;28;20222;-71
2023/04/29 03:47:48;;;;;;;17.40;14.70;;;;;19.90;100354.00;;;;2053969;28;20230;-71
2023/04/29 03:48:50;;;;;;;16.27;13.33;;;;;19.90;100348.00;;;;2064665;28;20216;-71
2023/04/29 03:49:50;;;;;;;16.73;13.80;;;;;19.90;100351.00;;;;2069701;28;20222;-71
2023/04/29 03:50:51;;;;;;;16.13;13.80;;;;;19.90;100347.00;;;;2071510;28;20221;-71
2023/04/29 03:51:51;;;;;;;17.53;14.40;;;;;19.90;100337.00;;;;2069577;28;20254;-72
2023/04/29 03:52:51;;;;;;;17.73;13.80;;;;;19.90;100345.00;;;;2067935;28;20269;-71
2023/04/29 03:53:52;;;;;;;17.43;14.33;;;;;19.90;100352.00;;;;2065899;28;20233;-71
2023/04/29 03:54:53;;;;;;;16.00;13.20;;;;;19.90;100338.00;;;;2060302;28;20226;-71
2023/04/29 03:55:53;;;;;;;16.03;14.00;;;;;19.90;100349.00;;;;2069699;28;20671;-71
2023/04/29 03:56:53;;;;;;;16.43;13.57;;;;;19.90;100358.00;;;;2062554;28;20219;-71
2023/04/29 03:57:54;;;;;;;16.00;13.20;;;;;19.90;100352.00;;;;2068185;28;20288;-71
2023/04/29 03:58:54;;;;;;;16.40;13.73;;;;;19.90;100356.00;;;;2063370;28;20212;-71
2023/04/29 03:59:54;;;;;;;14.83;12.80;;;;;19.90;100352.00;;;;2068635;28;20243;-71
2023/04/29 04:00:55;;;;;;;14.30;12.30;;;;;19.90;100347.00;;;;2071069;28;20221;-71
2023/04/29 04:01:55;;;;;;;16.33;13.80;;;;;19.90;100356.00;;;;2069794;28;20211;-71
2023/04/29 04:02:57;;;;;;;15.13;12.77;;;;;19.90;100352.00;;;;2069896;28;20218;-71
2023/04/29 04:03:57;;;;;;;16.05;12.77;;;;;19.90;100354.00;;;;2070321;28;20211;-71
2023/04/29 04:04:57;;;;;;;16.67;13.60;;;;;19.90;100334.00;;;;2073861;28;20218;-71
2023/04/29 04:05:58;;;;;;;15.30;13.70;;;;;19.90;100358.00;;;;2061855;28;20227;-71
2023/04/29 04:06:58;;;;;;;14.80;12.47;;;;;19.90;100360.00;;;;2048144;28;20283;-71
2023/04/29 04:07:59;;;;;;;15.50;12.47;;;;;19.90;100364.00;;;;2069123;28;20270;-71
2023/04/29 04:09:00;;;;;;;14.57;12.93;;;;;19.90;100373.00;;;;2069898;28;20247;-71
2023/04/29 04:10:00;;;;;;;15.83;12.83;;;;;19.80;100363.00;;;;2069347;28;20316;-71
2023/04/29 04:11:04;;;;;;;16.00;13.03;;;;;19.90;100363.00;;;;2077907;28;20229;-71
2023/04/29 04:12:05;;;;;;;14.60;12.77;;;;;19.90;100364.00;;;;2050862;28;20220;-71
2023/04/29 04:13:05;;;;;;;17.30;13.05;;;;;19.90;100370.00;;;;2054098;28;20236;-71
2023/04/29 04:14:06;;;;;;;16.40;13.30;;;;;19.90;100354.00;;;;2060703;28;20226;-71
2023/04/29 04:15:06;;;;;;;16.00;12.50;;;;;19.90;100370.00;;;;2065938;28;20242;-71
2023/04/29 04:16:07;;;;;;;16.23;13.90;;;;;19.90;100374.00;;;;2078368;28;20234;-71
2023/04/29 04:17:07;;;;;;;15.53;13.00;;;;;19.80;100336.00;;;;2069699;28;20219;-71
2023/04/29 04:18:07;;;;;;;16.27;13.20;;;;;19.90;100379.00;;;;2074996;28;20215;-70
2023/04/29 04:19:08;;;;;;;15.53;12.60;;;;;19.90;100371.00;;;;2071763;28;20230;-71
2023/04/29 04:20:08;;;;;;;13.27;11.50;;;;;19.90;100359.00;;;;2072719;28;20207;-71
2023/04/29 04:21:10;;;;;;;14.93;12.30;;;;;19.90;100374.00;;;;2071242;28;20215;-71
2023/04/29 04:22:10;;;;;;;14.40;11.80;;;;;19.80;100367.00;;;;2070800;28;20226;-71
2023/04/29 04:23:11;;;;;;;15.10;12.13;;;;;19.80;100362.00;;;;2071868;28;20214;-71
2023/04/29 04:24:11;;;;;;;14.80;12.10;;;;;19.80;100355.00;;;;2077002;28;20221;-71
2023/04/29 04:25:11;;;;;;;14.80;11.50;;;;;19.90;100383.00;;;;2064053;28;20215;-71
2023/04/29 04:26:11;;;;;;;13.97;11.40;;;;;19.90;100371.00;;;;2068874;28;20262;-71
2023/04/29 04:27:12;;;;;;;16.27;12.33;;;;;19.80;100375.00;;;;2079300;28;20214;-71
2023/04/29 04:28:12;;;;;;;15.80;12.70;;;;;19.90;100374.00;;;;2073064;28;20214;-71
2023/04/29 04:29:13;;;;;;;13.77;11.70;;;;;19.80;100390.00;;;;2063592;28;20238;-71
2023/04/29 04:30:13;;;;;;;14.70;12.13;;;;;19.80;100335.00;;;;2070802;28;20785;-71
2023/04/29 04:31:13;;;;;;;14.30;12.20;;;;;19.80;100385.00;;;;2073042;28;20222;-71
2023/04/29 04:32:14;;;;;;;13.30;11.50;;;;;19.80;100386.00;;;;2078139;28;20221;-71
2023/04/29 04:33:14;;;;;;;13.43;11.77;;;;;19.80;100384.00;;;;2064615;28;20215;-71
2023/04/29 04:34:15;;;;;;;14.10;12.50;;;;;19.80;100392.00;;;;2070238;28;20219;-71
2023/04/29 04:35:15;;;;;;;16.10;12.80;;;;;19.80;100393.00;;;;2078515;28;20221;-71
2023/04/29 04:36:16;;;;;;;15.47;11.47;;;;;19.80;100390.00;;;;2070645;28;20210;-71
2023/04/29 04:37:16;;;;;;;13.97;11.60;;;;;19.80;100387.00;;;;2070792;28;20246;-71
2023/04/29 04:38:16;;;;;;;14.07;12.57;;;;;19.80;100393.00;;;;2070394;28;20234;-71
2023/04/29 04:39:17;;;;;;;14.10;11.37;;;;;19.80;100364.00;;;;2071454;28;20211;-71
2023/04/29 04:40:17;;;;;;;13.43;10.90;;;;;19.80;100397.00;;;;2072616;28;20206;-71
2023/04/29 04:41:17;;;;;;;12.10;10.80;;;;;19.80;100395.00;;;;2065686;28;20236;-71
2023/04/29 04:42:19;;;;;;;12.07;10.80;;;;;19.80;100393.00;;;;2069652;28;20221;-71
2023/04/29 04:43:20;;;;;;;13.80;11.18;;;;;19.80;100401.00;;;;2064451;28;20231;-71
2023/04/29 04:44:20;;;;;;;13.77;11.23;;;;;19.80;100399.00;;;;2058911;28;20808;-71
2023/04/29 04:45:20;;;;;;;13.30;10.10;;;;;19.80;100375.00;;;;2064908;28;20271;-71
2023/04/29 04:46:21;;;;;;;12.50;11.20;;;;;19.80;100403.00;;;;2073867;28;20222;-71
2023/04/29 04:47:21;;;;;;;12.13;10.53;;;;;19.80;100405.00;;;;2074878;28;20219;-71
2023/04/29 04:48:22;;;;;;;12.17;10.87;;;;;19.80;100406.00;;;;2073070;28;20215;-71
2023/04/29 04:49:23;;;;;;;14.97;11.83;;;;;19.80;100412.00;;;;2071119;28;20329;-71
2023/04/29 04:50:26;;;;;;;13.63;11.77;;;;;19.80;100414.00;;;;2070758;28;20263;-71
2023/04/29 04:51:27;;;;;;;11.30;9.82;;;;;19.80;100413.00;;;;2065006;28;20254;-71
2023/04/29 04:52:28;;;;;;;12.88;10.90;;;;;19.80;100402.00;;;;2063179;28;20210;-71
2023/04/29 04:53:28;;;;;;;13.67;10.53;;;;;19.80;100419.00;;;;2070681;28;20214;-71
2023/04/29 04:54:28;;;;;;;12.20;10.03;;;;;19.80;100401.00;;;;2062356;28;20228;-71
2023/04/29 04:55:30;;;;;;;11.90;10.53;;;;;19.80;100390.00;;;;2072456;28;20218;-71
2023/04/29 04:56:30;;;;;;;14.10;11.35;;;;;19.80;100369.00;;;;2077400;28;20199;-71
2023/04/29 04:57:31;;;;;;;12.63;10.63;;;;;19.80;100395.00;;;;2069639;28;20211;-71